sensor_id;sensor_type;location;lat;lon;timestamp;P1;durP1;ratioP1;P2;durP2;ratioP2
84138;SDS011;74250;51.528;6.748;2023-11-19T00:00:51;22.25;;;10.60;;
84138;SDS011;74250;51.528;6.748;2023-11-19T00:03:17;15.75;;;9.85;;
84138;SDS011;74250;51.528;6.748;2023-11-19T00:05:42;11.30;;;8.57;;
84138;SDS011;74250;51.528;6.748;2023-11-19T00:08:09;11.82;;;7.38;;
84138;SDS011;74250;51.528;6.748;2023-11-19T00:10:34;12.60;;;7.82;;
84138;SDS011;74250;51.528;6.748;2023-11-19T00:12:59;12.38;;;7.72;;
84138;SDS011;74250;51.528;6.748;2023-11-19T00:15:25;12.48;;;7.25;;
84138;SDS011;74250;51.528;6.748;2023-11-19T00:17:50;10.77;;;7.70;;
84138;SDS011;74250;51.528;6.748;2023-11-19T00:20:19;9.20;;;6.82;;
84138;SDS011;74250;51.528;6.748;2023-11-19T00:22:46;11.68;;;7.15;;
84138;SDS011;74250;51.528;6.748;2023-11-19T00:25:13;8.95;;;6.95;;
84138;SDS011;74250;51.528;6.748;2023-11-19T00:27:39;8.52;;;5.85;;
84138;SDS011;74250;51.528;6.748;2023-11-19T00:30:05;11.77;;;7.47;;
84138;SDS011;74250;51.528;6.748;2023-11-19T00:32:32;12.73;;;6.63;;
84138;SDS011;74250;51.528;6.748;2023-11-19T00:37:23;9.60;;;7.00;;
84138;SDS011;74250;51.528;6.748;2023-11-19T00:39:48;9.68;;;7.28;;
84138;SDS011;74250;51.528;6.748;2023-11-19T00:42:13;8.65;;;6.93;;
84138;SDS011;74250;51.528;6.748;2023-11-19T00:44:39;9.23;;;6.15;;
84138;SDS011;74250;51.528;6.748;2023-11-19T00:47:04;9.07;;;7.15;;
84138;SDS011;74250;51.528;6.748;2023-11-19T00:49:30;7.97;;;6.10;;
84138;SDS011;74250;51.528;6.748;2023-11-19T00:51:57;7.55;;;6.68;;
84138;SDS011;74250;51.528;6.748;2023-11-19T00:54:25;10.10;;;7.50;;
84138;SDS011;74250;51.528;6.748;2023-11-19T00:56:51;9.30;;;6.75;;
84138;SDS011;74250;51.528;6.748;2023-11-19T00:59:18;10.20;;;6.43;;
84138;SDS011;74250;51.528;6.748;2023-11-19T01:01:43;8.32;;;6.57;;
84138;SDS011;74250;51.528;6.748;2023-11-19T01:04:09;11.02;;;7.63;;
84138;SDS011;74250;51.528;6.748;2023-11-19T01:06:34;9.30;;;7.60;;
84138;SDS011;74250;51.528;6.748;2023-11-19T01:09:00;6.93;;;5.10;;
84138;SDS011;74250;51.528;6.748;2023-11-19T01:11:25;7.97;;;5.95;;
84138;SDS011;74250;51.528;6.748;2023-11-19T01:13:51;8.82;;;5.88;;
84138;SDS011;74250;51.528;6.748;2023-11-19T01:16:17;10.57;;;6.18;;
84138;SDS011;74250;51.528;6.748;2023-11-19T01:18:43;6.38;;;5.20;;
84138;SDS011;74250;51.528;6.748;2023-11-19T01:21:09;7.18;;;4.88;;
84138;SDS011;74250;51.528;6.748;2023-11-19T01:23:35;8.20;;;5.45;;
84138;SDS011;74250;51.528;6.748;2023-11-19T01:26:02;7.57;;;5.07;;
84138;SDS011;74250;51.528;6.748;2023-11-19T01:28:27;6.25;;;5.00;;
84138;SDS011;74250;51.528;6.748;2023-11-19T01:30:53;7.72;;;4.50;;
84138;SDS011;74250;51.528;6.748;2023-11-19T01:33:18;5.90;;;4.88;;
84138;SDS011;74250;51.528;6.748;2023-11-19T01:35:44;7.07;;;4.50;;
84138;SDS011;74250;51.528;6.748;2023-11-19T01:38:09;5.88;;;4.15;;
84138;SDS011;74250;51.528;6.748;2023-11-19T01:40:35;5.53;;;3.95;;
84138;SDS011;74250;51.528;6.748;2023-11-19T01:43:03;6.53;;;4.75;;
84138;SDS011;74250;51.528;6.748;2023-11-19T01:45:29;7.35;;;4.22;;
84138;SDS011;74250;51.528;6.748;2023-11-19T01:48:00;4.63;;;2.50;;
84138;SDS011;74250;51.528;6.748;2023-11-19T01:50:25;7.10;;;4.45;;
84138;SDS011;74250;51.528;6.748;2023-11-19T01:52:52;5.95;;;4.57;;
84138;SDS011;74250;51.528;6.748;2023-11-19T01:55:18;5.15;;;2.92;;
84138;SDS011;74250;51.528;6.748;2023-11-19T01:57:45;4.18;;;2.90;;
84138;SDS011;74250;51.528;6.748;2023-11-19T02:00:11;5.45;;;3.72;;
84138;SDS011;74250;51.528;6.748;2023-11-19T02:02:37;4.30;;;3.80;;
84138;SDS011;74250;51.528;6.748;2023-11-19T02:05:04;5.60;;;4.13;;
84138;SDS011;74250;51.528;6.748;2023-11-19T02:07:30;7.72;;;3.80;;
84138;SDS011;74250;51.528;6.748;2023-11-19T02:09:56;7.85;;;3.78;;
84138;SDS011;74250;51.528;6.748;2023-11-19T02:12:24;7.63;;;4.88;;
84138;SDS011;74250;51.528;6.748;2023-11-19T02:14:49;6.40;;;3.42;;
84138;SDS011;74250;51.528;6.748;2023-11-19T02:17:27;6.20;;;4.05;;
84138;SDS011;74250;51.528;6.748;2023-11-19T02:19:56;4.78;;;3.50;;
84138;SDS011;74250;51.528;6.748;2023-11-19T02:22:22;6.60;;;3.30;;
84138;SDS011;74250;51.528;6.748;2023-11-19T02:24:47;7.50;;;3.45;;
84138;SDS011;74250;51.528;6.748;2023-11-19T02:27:16;7.18;;;2.40;;
84138;SDS011;74250;51.528;6.748;2023-11-19T02:29:49;7.75;;;2.67;;
84138;SDS011;74250;51.528;6.748;2023-11-19T02:32:15;4.47;;;2.78;;
84138;SDS011;74250;51.528;6.748;2023-11-19T02:34:40;8.18;;;2.90;;
84138;SDS011;74250;51.528;6.748;2023-11-19T02:37:06;6.05;;;3.00;;
84138;SDS011;74250;51.528;6.748;2023-11-19T02:39:31;7.18;;;2.25;;
84138;SDS011;74250;51.528;6.748;2023-11-19T02:41:56;5.18;;;2.28;;
84138;SDS011;74250;51.528;6.748;2023-11-19T02:44:22;6.82;;;2.30;;
84138;SDS011;74250;51.528;6.748;2023-11-19T02:46:48;6.50;;;2.47;;
84138;SDS011;74250;51.528;6.748;2023-11-19T02:49:14;6.35;;;2.60;;
84138;SDS011;74250;51.528;6.748;2023-11-19T02:54:05;6.97;;;2.40;;
84138;SDS011;74250;51.528;6.748;2023-11-19T02:56:31;6.45;;;2.28;;
84138;SDS011;74250;51.528;6.748;2023-11-19T02:58:59;7.22;;;2.00;;
84138;SDS011;74250;51.528;6.748;2023-11-19T03:01:28;7.20;;;2.50;;
84138;SDS011;74250;51.528;6.748;2023-11-19T03:03:59;10.43;;;3.38;;
84138;SDS011;74250;51.528;6.748;2023-11-19T03:06:26;7.43;;;2.70;;
84138;SDS011;74250;51.528;6.748;2023-11-19T03:08:52;12.27;;;2.03;;
84138;SDS011;74250;51.528;6.748;2023-11-19T03:11:17;8.35;;;1.63;;
84138;SDS011;74250;51.528;6.748;2023-11-19T03:13:43;6.35;;;1.48;;
84138;SDS011;74250;51.528;6.748;2023-11-19T03:16:08;8.13;;;2.50;;
84138;SDS011;74250;51.528;6.748;2023-11-19T03:18:34;10.95;;;1.75;;
84138;SDS011;74250;51.528;6.748;2023-11-19T03:21:00;7.32;;;1.20;;
84138;SDS011;74250;51.528;6.748;2023-11-19T03:23:25;8.02;;;1.80;;
84138;SDS011;74250;51.528;6.748;2023-11-19T03:25:52;7.47;;;1.55;;
84138;SDS011;74250;51.528;6.748;2023-11-19T03:28:18;9.18;;;3.08;;
84138;SDS011;74250;51.528;6.748;2023-11-19T03:30:43;7.55;;;1.52;;
84138;SDS011;74250;51.528;6.748;2023-11-19T03:33:09;8.48;;;1.77;;
84138;SDS011;74250;51.528;6.748;2023-11-19T03:35:34;10.52;;;2.35;;
84138;SDS011;74250;51.528;6.748;2023-11-19T03:37:59;6.75;;;1.50;;
84138;SDS011;74250;51.528;6.748;2023-11-19T03:40:26;12.18;;;2.33;;
84138;SDS011;74250;51.528;6.748;2023-11-19T03:42:51;8.40;;;1.98;;
84138;SDS011;74250;51.528;6.748;2023-11-19T03:45:16;18.38;;;2.65;;
84138;SDS011;74250;51.528;6.748;2023-11-19T03:47:42;12.52;;;1.80;;
84138;SDS011;74250;51.528;6.748;2023-11-19T03:50:07;15.52;;;2.35;;
84138;SDS011;74250;51.528;6.748;2023-11-19T03:52:34;10.50;;;2.00;;
84138;SDS011;74250;51.528;6.748;2023-11-19T03:54:59;12.82;;;1.95;;
84138;SDS011;74250;51.528;6.748;2023-11-19T03:57:25;14.18;;;2.67;;
84138;SDS011;74250;51.528;6.748;2023-11-19T03:59:50;12.27;;;2.47;;
84138;SDS011;74250;51.528;6.748;2023-11-19T04:02:16;14.77;;;2.50;;
84138;SDS011;74250;51.528;6.748;2023-11-19T04:04:41;14.10;;;2.35;;
84138;SDS011;74250;51.528;6.748;2023-11-19T04:07:06;13.63;;;2.40;;
84138;SDS011;74250;51.528;6.748;2023-11-19T04:09:32;16.13;;;2.95;;
84138;SDS011;74250;51.528;6.748;2023-11-19T04:12:02;11.70;;;2.05;;
84138;SDS011;74250;51.528;6.748;2023-11-19T04:14:28;10.90;;;1.92;;
84138;SDS011;74250;51.528;6.748;2023-11-19T04:16:53;9.77;;;1.13;;
84138;SDS011;74250;51.528;6.748;2023-11-19T04:19:19;12.82;;;2.13;;
84138;SDS011;74250;51.528;6.748;2023-11-19T04:21:44;13.93;;;1.50;;
84138;SDS011;74250;51.528;6.748;2023-11-19T04:24:10;14.02;;;2.28;;
84138;SDS011;74250;51.528;6.748;2023-11-19T04:26:44;19.40;;;1.77;;
84138;SDS011;74250;51.528;6.748;2023-11-19T04:29:13;12.23;;;1.50;;
84138;SDS011;74250;51.528;6.748;2023-11-19T04:31:39;12.93;;;2.22;;
84138;SDS011;74250;51.528;6.748;2023-11-19T04:34:05;16.63;;;2.33;;
84138;SDS011;74250;51.528;6.748;2023-11-19T04:36:34;14.18;;;2.15;;
84138;SDS011;74250;51.528;6.748;2023-11-19T04:38:59;12.07;;;2.25;;
84138;SDS011;74250;51.528;6.748;2023-11-19T04:41:25;15.60;;;2.53;;
84138;SDS011;74250;51.528;6.748;2023-11-19T04:43:52;17.35;;;2.15;;
84138;SDS011;74250;51.528;6.748;2023-11-19T04:46:18;13.05;;;1.73;;
84138;SDS011;74250;51.528;6.748;2023-11-19T04:48:44;21.65;;;2.80;;
84138;SDS011;74250;51.528;6.748;2023-11-19T04:51:09;20.52;;;3.13;;
84138;SDS011;74250;51.528;6.748;2023-11-19T04:53:34;18.58;;;1.77;;
84138;SDS011;74250;51.528;6.748;2023-11-19T04:56:00;21.85;;;3.58;;
84138;SDS011;74250;51.528;6.748;2023-11-19T04:58:25;19.05;;;4.03;;
84138;SDS011;74250;51.528;6.748;2023-11-19T05:00:50;17.05;;;2.63;;
84138;SDS011;74250;51.528;6.748;2023-11-19T05:03:16;18.02;;;2.58;;
84138;SDS011;74250;51.528;6.748;2023-11-19T05:05:41;13.48;;;1.92;;
84138;SDS011;74250;51.528;6.748;2023-11-19T05:08:06;17.65;;;2.92;;
84138;SDS011;74250;51.528;6.748;2023-11-19T05:10:32;19.75;;;3.45;;
84138;SDS011;74250;51.528;6.748;2023-11-19T05:12:57;18.92;;;2.50;;
84138;SDS011;74250;51.528;6.748;2023-11-19T05:15:22;17.00;;;2.80;;
84138;SDS011;74250;51.528;6.748;2023-11-19T05:17:48;18.80;;;2.78;;
84138;SDS011;74250;51.528;6.748;2023-11-19T05:20:14;16.67;;;2.75;;
84138;SDS011;74250;51.528;6.748;2023-11-19T05:22:40;17.67;;;2.25;;
84138;SDS011;74250;51.528;6.748;2023-11-19T05:25:06;21.08;;;4.78;;
84138;SDS011;74250;51.528;6.748;2023-11-19T05:27:32;17.30;;;2.30;;
84138;SDS011;74250;51.528;6.748;2023-11-19T05:29:58;15.65;;;2.40;;
84138;SDS011;74250;51.528;6.748;2023-11-19T05:32:23;18.98;;;3.25;;
84138;SDS011;74250;51.528;6.748;2023-11-19T05:34:48;16.35;;;2.70;;
84138;SDS011;74250;51.528;6.748;2023-11-19T05:37:13;15.77;;;3.65;;
84138;SDS011;74250;51.528;6.748;2023-11-19T05:39:39;15.10;;;2.30;;
84138;SDS011;74250;51.528;6.748;2023-11-19T05:42:04;19.58;;;3.22;;
84138;SDS011;74250;51.528;6.748;2023-11-19T05:44:30;16.60;;;1.80;;
84138;SDS011;74250;51.528;6.748;2023-11-19T05:46:56;15.10;;;2.35;;
84138;SDS011;74250;51.528;6.748;2023-11-19T05:49:21;17.40;;;2.88;;
84138;SDS011;74250;51.528;6.748;2023-11-19T05:51:46;16.85;;;3.28;;
84138;SDS011;74250;51.528;6.748;2023-11-19T05:54:12;13.35;;;2.47;;
84138;SDS011;74250;51.528;6.748;2023-11-19T05:56:38;13.88;;;2.47;;
84138;SDS011;74250;51.528;6.748;2023-11-19T05:59:04;18.23;;;3.35;;
84138;SDS011;74250;51.528;6.748;2023-11-19T06:01:33;17.48;;;2.65;;
84138;SDS011;74250;51.528;6.748;2023-11-19T06:03:59;16.73;;;3.00;;
84138;SDS011;74250;51.528;6.748;2023-11-19T06:06:26;25.02;;;3.22;;
84138;SDS011;74250;51.528;6.748;2023-11-19T06:08:51;20.52;;;3.03;;
84138;SDS011;74250;51.528;6.748;2023-11-19T06:11:17;15.25;;;2.10;;
84138;SDS011;74250;51.528;6.748;2023-11-19T06:13:45;15.93;;;2.33;;
84138;SDS011;74250;51.528;6.748;2023-11-19T06:16:11;19.45;;;3.70;;
84138;SDS011;74250;51.528;6.748;2023-11-19T06:18:37;15.82;;;2.75;;
84138;SDS011;74250;51.528;6.748;2023-11-19T06:21:02;22.88;;;4.07;;
84138;SDS011;74250;51.528;6.748;2023-11-19T06:23:28;27.25;;;2.92;;
84138;SDS011;74250;51.528;6.748;2023-11-19T06:25:53;17.67;;;2.83;;
84138;SDS011;74250;51.528;6.748;2023-11-19T06:28:18;21.63;;;2.80;;
84138;SDS011;74250;51.528;6.748;2023-11-19T06:30:44;20.73;;;3.00;;
84138;SDS011;74250;51.528;6.748;2023-11-19T06:33:12;16.85;;;3.10;;
84138;SDS011;74250;51.528;6.748;2023-11-19T06:35:38;23.95;;;3.08;;
84138;SDS011;74250;51.528;6.748;2023-11-19T06:38:03;19.65;;;3.22;;
84138;SDS011;74250;51.528;6.748;2023-11-19T06:40:32;18.63;;;2.35;;
84138;SDS011;74250;51.528;6.748;2023-11-19T06:42:58;19.23;;;2.70;;
84138;SDS011;74250;51.528;6.748;2023-11-19T06:45:23;13.38;;;3.05;;
84138;SDS011;74250;51.528;6.748;2023-11-19T06:47:48;21.92;;;3.10;;
84138;SDS011;74250;51.528;6.748;2023-11-19T06:50:14;23.10;;;3.42;;
84138;SDS011;74250;51.528;6.748;2023-11-19T06:52:40;26.27;;;4.13;;
84138;SDS011;74250;51.528;6.748;2023-11-19T06:55:05;16.70;;;2.15;;
84138;SDS011;74250;51.528;6.748;2023-11-19T06:57:31;16.58;;;2.97;;
84138;SDS011;74250;51.528;6.748;2023-11-19T06:59:57;24.95;;;3.08;;
84138;SDS011;74250;51.528;6.748;2023-11-19T07:02:23;16.98;;;2.88;;
84138;SDS011;74250;51.528;6.748;2023-11-19T07:04:49;18.48;;;3.25;;
84138;SDS011;74250;51.528;6.748;2023-11-19T07:07:14;15.60;;;2.65;;
84138;SDS011;74250;51.528;6.748;2023-11-19T07:09:40;24.95;;;3.15;;
84138;SDS011;74250;51.528;6.748;2023-11-19T07:12:05;24.33;;;2.53;;
84138;SDS011;74250;51.528;6.748;2023-11-19T07:14:31;17.27;;;2.30;;
84138;SDS011;74250;51.528;6.748;2023-11-19T07:16:57;19.05;;;3.00;;
84138;SDS011;74250;51.528;6.748;2023-11-19T07:19:22;19.75;;;3.13;;
84138;SDS011;74250;51.528;6.748;2023-11-19T07:21:47;22.13;;;3.30;;
84138;SDS011;74250;51.528;6.748;2023-11-19T07:24:13;19.05;;;2.42;;
84138;SDS011;74250;51.528;6.748;2023-11-19T07:26:45;23.40;;;2.90;;
84138;SDS011;74250;51.528;6.748;2023-11-19T07:29:12;20.98;;;2.83;;
84138;SDS011;74250;51.528;6.748;2023-11-19T07:31:37;26.15;;;4.53;;
84138;SDS011;74250;51.528;6.748;2023-11-19T07:34:03;20.65;;;3.25;;
84138;SDS011;74250;51.528;6.748;2023-11-19T07:36:30;18.77;;;2.30;;
84138;SDS011;74250;51.528;6.748;2023-11-19T07:38:56;25.92;;;2.20;;
84138;SDS011;74250;51.528;6.748;2023-11-19T07:43:48;26.20;;;2.42;;
84138;SDS011;74250;51.528;6.748;2023-11-19T07:46:14;17.02;;;3.95;;
84138;SDS011;74250;51.528;6.748;2023-11-19T07:48:39;18.90;;;2.88;;
84138;SDS011;74250;51.528;6.748;2023-11-19T07:51:06;15.48;;;2.20;;
84138;SDS011;74250;51.528;6.748;2023-11-19T07:53:31;22.00;;;3.28;;
84138;SDS011;74250;51.528;6.748;2023-11-19T07:55:58;18.30;;;3.40;;
84138;SDS011;74250;51.528;6.748;2023-11-19T07:58:24;19.25;;;2.47;;
84138;SDS011;74250;51.528;6.748;2023-11-19T08:00:50;19.02;;;2.95;;
84138;SDS011;74250;51.528;6.748;2023-11-19T08:03:15;16.85;;;2.75;;
84138;SDS011;74250;51.528;6.748;2023-11-19T08:05:41;22.23;;;2.67;;
84138;SDS011;74250;51.528;6.748;2023-11-19T08:08:06;14.77;;;2.25;;
84138;SDS011;74250;51.528;6.748;2023-11-19T08:10:32;19.55;;;2.67;;
84138;SDS011;74250;51.528;6.748;2023-11-19T08:12:58;19.27;;;4.13;;
84138;SDS011;74250;51.528;6.748;2023-11-19T08:15:23;20.17;;;3.45;;
84138;SDS011;74250;51.528;6.748;2023-11-19T08:17:49;19.45;;;2.75;;
84138;SDS011;74250;51.528;6.748;2023-11-19T08:20:14;15.73;;;3.17;;
84138;SDS011;74250;51.528;6.748;2023-11-19T08:22:39;28.20;;;4.18;;
84138;SDS011;74250;51.528;6.748;2023-11-19T08:25:05;22.55;;;2.60;;
84138;SDS011;74250;51.528;6.748;2023-11-19T08:27:31;15.13;;;2.75;;
84138;SDS011;74250;51.528;6.748;2023-11-19T08:29:56;17.08;;;2.08;;
84138;SDS011;74250;51.528;6.748;2023-11-19T08:32:25;16.50;;;3.03;;
84138;SDS011;74250;51.528;6.748;2023-11-19T08:34:51;23.50;;;1.98;;
84138;SDS011;74250;51.528;6.748;2023-11-19T08:37:16;19.90;;;3.05;;
84138;SDS011;74250;51.528;6.748;2023-11-19T08:39:49;27.50;;;3.03;;
84138;SDS011;74250;51.528;6.748;2023-11-19T08:42:15;18.30;;;2.20;;
84138;SDS011;74250;51.528;6.748;2023-11-19T08:44:41;19.42;;;2.45;;
84138;SDS011;74250;51.528;6.748;2023-11-19T08:47:09;24.10;;;2.92;;
84138;SDS011;74250;51.528;6.748;2023-11-19T08:49:37;18.90;;;2.83;;
84138;SDS011;74250;51.528;6.748;2023-11-19T08:52:05;21.00;;;2.17;;
84138;SDS011;74250;51.528;6.748;2023-11-19T08:54:32;22.77;;;5.35;;
84138;SDS011;74250;51.528;6.748;2023-11-19T08:56:58;19.40;;;2.97;;
84138;SDS011;74250;51.528;6.748;2023-11-19T08:59:24;16.58;;;2.60;;
84138;SDS011;74250;51.528;6.748;2023-11-19T09:01:49;16.48;;;2.80;;
84138;SDS011;74250;51.528;6.748;2023-11-19T09:04:15;16.00;;;2.63;;
84138;SDS011;74250;51.528;6.748;2023-11-19T09:06:41;15.88;;;2.10;;
84138;SDS011;74250;51.528;6.748;2023-11-19T09:09:07;19.88;;;2.35;;
84138;SDS011;74250;51.528;6.748;2023-11-19T09:11:33;25.42;;;4.40;;
84138;SDS011;74250;51.528;6.748;2023-11-19T09:13:58;16.10;;;2.60;;
84138;SDS011;74250;51.528;6.748;2023-11-19T09:16:24;23.77;;;3.08;;
84138;SDS011;74250;51.528;6.748;2023-11-19T09:18:49;19.35;;;2.78;;
84138;SDS011;74250;51.528;6.748;2023-11-19T09:21:15;17.45;;;2.53;;
84138;SDS011;74250;51.528;6.748;2023-11-19T09:23:40;23.73;;;3.85;;
84138;SDS011;74250;51.528;6.748;2023-11-19T09:26:06;21.55;;;2.67;;
84138;SDS011;74250;51.528;6.748;2023-11-19T09:28:33;19.60;;;2.55;;
84138;SDS011;74250;51.528;6.748;2023-11-19T09:30:58;17.25;;;2.45;;
84138;SDS011;74250;51.528;6.748;2023-11-19T09:33:24;13.20;;;1.92;;
84138;SDS011;74250;51.528;6.748;2023-11-19T09:35:49;17.85;;;2.30;;
84138;SDS011;74250;51.528;6.748;2023-11-19T09:38:15;17.13;;;2.72;;
84138;SDS011;74250;51.528;6.748;2023-11-19T09:40:41;14.95;;;2.80;;
84138;SDS011;74250;51.528;6.748;2023-11-19T09:43:07;22.67;;;3.65;;
84138;SDS011;74250;51.528;6.748;2023-11-19T09:45:36;24.60;;;3.05;;
84138;SDS011;74250;51.528;6.748;2023-11-19T09:48:14;19.85;;;3.08;;
84138;SDS011;74250;51.528;6.748;2023-11-19T09:50:41;21.45;;;4.50;;
84138;SDS011;74250;51.528;6.748;2023-11-19T09:53:07;20.88;;;2.53;;
84138;SDS011;74250;51.528;6.748;2023-11-19T09:55:32;22.10;;;2.83;;
84138;SDS011;74250;51.528;6.748;2023-11-19T09:57:57;19.63;;;2.65;;
84138;SDS011;74250;51.528;6.748;2023-11-19T10:00:26;22.52;;;3.47;;
84138;SDS011;74250;51.528;6.748;2023-11-19T10:02:51;17.73;;;2.25;;
84138;SDS011;74250;51.528;6.748;2023-11-19T10:05:17;20.70;;;2.97;;
84138;SDS011;74250;51.528;6.748;2023-11-19T10:07:45;17.80;;;2.25;;
84138;SDS011;74250;51.528;6.748;2023-11-19T10:10:10;22.73;;;2.97;;
84138;SDS011;74250;51.528;6.748;2023-11-19T10:12:45;17.08;;;2.55;;
84138;SDS011;74250;51.528;6.748;2023-11-19T10:15:20;14.93;;;1.55;;
84138;SDS011;74250;51.528;6.748;2023-11-19T10:17:47;23.33;;;3.03;;
84138;SDS011;74250;51.528;6.748;2023-11-19T10:20:12;24.48;;;3.42;;
84138;SDS011;74250;51.528;6.748;2023-11-19T10:22:40;18.23;;;2.42;;
84138;SDS011;74250;51.528;6.748;2023-11-19T10:25:22;23.45;;;3.72;;
84138;SDS011;74250;51.528;6.748;2023-11-19T10:27:49;19.63;;;3.13;;
84138;SDS011;74250;51.528;6.748;2023-11-19T10:30:21;19.85;;;4.25;;
84138;SDS011;74250;51.528;6.748;2023-11-19T10:33:07;23.02;;;3.85;;
84138;SDS011;74250;51.528;6.748;2023-11-19T10:35:37;20.75;;;2.72;;
84138;SDS011;74250;51.528;6.748;2023-11-19T10:38:19;14.85;;;2.40;;
84138;SDS011;74250;51.528;6.748;2023-11-19T10:40:44;22.15;;;3.58;;
84138;SDS011;74250;51.528;6.748;2023-11-19T10:43:10;15.02;;;2.90;;
84138;SDS011;74250;51.528;6.748;2023-11-19T10:45:35;17.00;;;3.40;;
84138;SDS011;74250;51.528;6.748;2023-11-19T10:50:29;11.60;;;2.10;;
84138;SDS011;74250;51.528;6.748;2023-11-19T10:52:57;20.08;;;3.28;;
84138;SDS011;74250;51.528;6.748;2023-11-19T10:55:29;17.38;;;3.25;;
84138;SDS011;74250;51.528;6.748;2023-11-19T10:58:00;23.70;;;3.53;;
84138;SDS011;74250;51.528;6.748;2023-11-19T11:00:29;23.42;;;4.07;;
84138;SDS011;74250;51.528;6.748;2023-11-19T11:03:00;19.70;;;3.60;;
84138;SDS011;74250;51.528;6.748;2023-11-19T11:05:27;15.55;;;2.47;;
84138;SDS011;74250;51.528;6.748;2023-11-19T11:07:55;15.10;;;2.58;;
84138;SDS011;74250;51.528;6.748;2023-11-19T11:10:21;20.92;;;3.45;;
84138;SDS011;74250;51.528;6.748;2023-11-19T11:12:51;20.33;;;3.92;;
84138;SDS011;74250;51.528;6.748;2023-11-19T11:15:21;18.15;;;3.63;;
84138;SDS011;74250;51.528;6.748;2023-11-19T11:17:46;19.77;;;3.22;;
84138;SDS011;74250;51.528;6.748;2023-11-19T11:20:12;16.85;;;3.20;;
84138;SDS011;74250;51.528;6.748;2023-11-19T11:31:13;14.50;;;1.98;;
84138;SDS011;74250;51.528;6.748;2023-11-19T11:36:26;17.95;;;3.22;;
84138;SDS011;74250;51.528;6.748;2023-11-19T11:38:51;15.65;;;2.40;;
84138;SDS011;74250;51.528;6.748;2023-11-19T11:41:21;21.90;;;3.20;;
84138;SDS011;74250;51.528;6.748;2023-11-19T11:43:48;17.08;;;3.30;;
84138;SDS011;74250;51.528;6.748;2023-11-19T11:48:59;15.50;;;2.08;;
84138;SDS011;74250;51.528;6.748;2023-11-19T11:54:09;17.42;;;3.33;;
84138;SDS011;74250;51.528;6.748;2023-11-19T11:56:38;22.00;;;4.80;;
84138;SDS011;74250;51.528;6.748;2023-11-19T11:59:07;18.38;;;4.53;;
84138;SDS011;74250;51.528;6.748;2023-11-19T12:01:57;15.25;;;2.55;;
84138;SDS011;74250;51.528;6.748;2023-11-19T12:04:25;10.15;;;1.40;;
84138;SDS011;74250;51.528;6.748;2023-11-19T12:07:08;15.40;;;2.28;;
84138;SDS011;74250;51.528;6.748;2023-11-19T12:09:37;16.90;;;3.22;;
84138;SDS011;74250;51.528;6.748;2023-11-19T12:19:59;17.13;;;2.13;;
84138;SDS011;74250;51.528;6.748;2023-11-19T12:22:34;13.25;;;2.28;;
84138;SDS011;74250;51.528;6.748;2023-11-19T12:25:01;17.40;;;2.25;;
84138;SDS011;74250;51.528;6.748;2023-11-19T12:27:27;18.35;;;2.08;;
84138;SDS011;74250;51.528;6.748;2023-11-19T12:29:53;15.43;;;2.75;;
84138;SDS011;74250;51.528;6.748;2023-11-19T12:32:19;19.10;;;2.60;;
84138;SDS011;74250;51.528;6.748;2023-11-19T12:37:11;24.33;;;3.13;;
84138;SDS011;74250;51.528;6.748;2023-11-19T12:39:36;14.95;;;2.55;;
84138;SDS011;74250;51.528;6.748;2023-11-19T12:42:02;15.65;;;2.25;;
84138;SDS011;74250;51.528;6.748;2023-11-19T12:44:27;15.48;;;3.47;;
84138;SDS011;74250;51.528;6.748;2023-11-19T12:47:02;15.05;;;1.58;;
84138;SDS011;74250;51.528;6.748;2023-11-19T12:49:28;14.23;;;2.40;;
84138;SDS011;74250;51.528;6.748;2023-11-19T12:51:54;13.32;;;2.58;;
84138;SDS011;74250;51.528;6.748;2023-11-19T12:54:19;12.57;;;2.72;;
84138;SDS011;74250;51.528;6.748;2023-11-19T12:56:56;12.35;;;2.20;;
84138;SDS011;74250;51.528;6.748;2023-11-19T13:02:52;15.70;;;1.48;;
84138;SDS011;74250;51.528;6.748;2023-11-19T13:07:47;11.48;;;1.45;;
84138;SDS011;74250;51.528;6.748;2023-11-19T13:10:12;9.18;;;1.92;;
84138;SDS011;74250;51.528;6.748;2023-11-19T13:12:38;11.93;;;1.48;;
84138;SDS011;74250;51.528;6.748;2023-11-19T13:15:04;17.42;;;1.75;;
84138;SDS011;74250;51.528;6.748;2023-11-19T13:17:29;13.43;;;2.70;;
84138;SDS011;74250;51.528;6.748;2023-11-19T13:19:55;11.18;;;1.38;;
84138;SDS011;74250;51.528;6.748;2023-11-19T13:22:22;10.48;;;1.77;;
84138;SDS011;74250;51.528;6.748;2023-11-19T13:24:47;10.63;;;2.20;;
84138;SDS011;74250;51.528;6.748;2023-11-19T13:27:14;13.77;;;2.70;;
84138;SDS011;74250;51.528;6.748;2023-11-19T13:29:39;16.45;;;2.75;;
84138;SDS011;74250;51.528;6.748;2023-11-19T13:32:05;14.85;;;3.35;;
84138;SDS011;74250;51.528;6.748;2023-11-19T13:34:32;14.75;;;4.05;;
84138;SDS011;74250;51.528;6.748;2023-11-19T13:36:57;13.50;;;2.67;;
84138;SDS011;74250;51.528;6.748;2023-11-19T13:39:22;11.55;;;1.85;;
84138;SDS011;74250;51.528;6.748;2023-11-19T13:41:49;16.17;;;2.45;;
84138;SDS011;74250;51.528;6.748;2023-11-19T13:44:15;10.27;;;2.53;;
84138;SDS011;74250;51.528;6.748;2023-11-19T13:46:41;15.70;;;2.42;;
84138;SDS011;74250;51.528;6.748;2023-11-19T13:49:06;15.00;;;3.38;;
84138;SDS011;74250;51.528;6.748;2023-11-19T13:51:32;14.55;;;1.55;;
84138;SDS011;74250;51.528;6.748;2023-11-19T13:53:57;14.00;;;2.08;;
84138;SDS011;74250;51.528;6.748;2023-11-19T13:56:23;17.38;;;3.05;;
84138;SDS011;74250;51.528;6.748;2023-11-19T13:58:48;13.75;;;3.70;;
84138;SDS011;74250;51.528;6.748;2023-11-19T14:01:15;13.07;;;2.45;;
84138;SDS011;74250;51.528;6.748;2023-11-19T14:03:40;11.43;;;1.90;;
84138;SDS011;74250;51.528;6.748;2023-11-19T14:06:06;14.25;;;2.53;;
84138;SDS011;74250;51.528;6.748;2023-11-19T14:08:33;10.93;;;2.28;;
84138;SDS011;74250;51.528;6.748;2023-11-19T14:10:58;11.27;;;2.25;;
84138;SDS011;74250;51.528;6.748;2023-11-19T14:13:24;17.15;;;2.85;;
84138;SDS011;74250;51.528;6.748;2023-11-19T14:15:50;16.67;;;2.35;;
84138;SDS011;74250;51.528;6.748;2023-11-19T14:18:16;16.05;;;1.83;;
84138;SDS011;74250;51.528;6.748;2023-11-19T14:20:41;12.98;;;2.13;;
84138;SDS011;74250;51.528;6.748;2023-11-19T14:23:07;11.10;;;2.38;;
84138;SDS011;74250;51.528;6.748;2023-11-19T14:25:34;20.63;;;3.83;;
84138;SDS011;74250;51.528;6.748;2023-11-19T14:27:59;17.30;;;2.90;;
84138;SDS011;74250;51.528;6.748;2023-11-19T14:30:24;12.65;;;2.28;;
84138;SDS011;74250;51.528;6.748;2023-11-19T14:32:50;12.98;;;2.72;;
84138;SDS011;74250;51.528;6.748;2023-11-19T14:35:15;16.02;;;3.85;;
84138;SDS011;74250;51.528;6.748;2023-11-19T14:37:40;11.60;;;2.70;;
84138;SDS011;74250;51.528;6.748;2023-11-19T14:40:06;20.77;;;4.95;;
84138;SDS011;74250;51.528;6.748;2023-11-19T14:42:34;12.50;;;2.47;;
84138;SDS011;74250;51.528;6.748;2023-11-19T14:45:00;18.10;;;3.72;;
84138;SDS011;74250;51.528;6.748;2023-11-19T14:47:25;17.83;;;2.25;;
84138;SDS011;74250;51.528;6.748;2023-11-19T14:49:51;19.52;;;4.03;;
84138;SDS011;74250;51.528;6.748;2023-11-19T14:52:16;18.48;;;2.35;;
84138;SDS011;74250;51.528;6.748;2023-11-19T14:54:42;14.45;;;2.50;;
84138;SDS011;74250;51.528;6.748;2023-11-19T14:57:07;16.52;;;2.60;;
84138;SDS011;74250;51.528;6.748;2023-11-19T14:59:36;17.70;;;3.60;;
84138;SDS011;74250;51.528;6.748;2023-11-19T15:02:01;12.18;;;2.28;;
84138;SDS011;74250;51.528;6.748;2023-11-19T15:04:27;18.77;;;2.30;;
84138;SDS011;74250;51.528;6.748;2023-11-19T15:06:53;17.08;;;4.93;;
84138;SDS011;74250;51.528;6.748;2023-11-19T15:09:18;12.50;;;2.17;;
84138;SDS011;74250;51.528;6.748;2023-11-19T15:11:46;15.30;;;2.45;;
84138;SDS011;74250;51.528;6.748;2023-11-19T15:14:13;13.43;;;4.35;;
84138;SDS011;74250;51.528;6.748;2023-11-19T15:16:44;24.35;;;6.45;;